Time;durP1;ratioP1;P1;durP2;ratioP2;P2;SDS_P1;SDS_P2;PMS_P1;PMS_P2;Temp;Humidity;BMP_temperature;BMP_pressure;BME280_temperature;BME280_humidity;BME280_pressure;Samples;Min_cycle;Max_cycle;Signal;HPM_P1;HPM_P2
2022/11/20 00:01:13;;;;;;;20.03;10.97;;;3.70;99.90;;;;;;5110470;28;20215;-87
2022/11/20 00:03:39;;;;;;;18.77;11.07;;;3.80;99.90;;;;;;5106007;28;20203;-81
2022/11/20 00:06:08;;;;;;;20.57;11.30;;;3.80;99.90;;;;;;5097304;28;20200;-89
2022/11/20 00:08:34;;;;;;;21.30;12.00;;;3.80;99.90;;;;;;5094897;28;20205;-84
2022/11/20 00:11:20;;;;;;;16.77;10.67;;;3.90;99.90;;;;;;5091402;28;20615;-83
2022/11/20 00:13:49;;;;;;;18.00;10.10;;;3.80;99.90;;;;;;5092928;28;20223;-86
2022/11/20 00:16:18;;;;;;;14.63;9.93;;;3.70;99.90;;;;;;5093415;28;20194;-83
2022/11/20 00:18:44;;;;;;;15.00;9.37;;;3.80;99.90;;;;;;5094130;28;20179;-87
2022/11/20 00:21:18;;;;;;;15.00;9.80;;;3.80;99.90;;;;;;5097934;28;20267;-86
2022/11/20 00:23:45;;;;;;;14.80;9.77;;;3.80;99.90;;;;;;5093527;28;20186;-84
2022/11/20 00:26:14;;;;;;;13.53;8.80;;;3.80;99.90;;;;;;5093270;28;20178;-81
2022/11/20 00:28:40;;;;;;;14.10;9.43;;;3.80;99.90;;;;;;5093519;28;20197;-81
2022/11/20 00:31:09;;;;;;;12.97;9.07;;;3.80;99.90;;;;;;5093528;28;20183;-84
2022/11/20 00:33:35;;;;;;;12.73;8.97;;;3.80;99.90;;;;;;5096664;28;20194;-88
2022/11/20 00:36:03;;;;;;;12.77;8.40;;;3.80;99.90;;;;;;5094225;28;20205;-88
2022/11/20 00:38:30;;;;;;;12.63;8.17;;;3.90;99.90;;;;;;5103502;28;20271;-89
2022/11/20 00:40:57;;;;;;;12.77;8.40;;;3.90;99.90;;;;;;5129514;28;20186;-86
2022/11/20 00:43:24;;;;;;;13.50;8.63;;;3.90;99.90;;;;;;5127250;28;20189;-91
2022/11/20 00:45:49;;;;;;;13.40;8.87;;;4.00;99.90;;;;;;5106778;28;20182;-85
2022/11/20 00:48:18;;;;;;;15.43;8.93;;;4.00;99.90;;;;;;5116614;28;20176;-86
2022/11/20 00:50:43;;;;;;;15.17;9.40;;;4.00;99.90;;;;;;5134874;28;20205;-86
2022/11/20 00:53:09;;;;;;;12.77;8.67;;;4.00;99.90;;;;;;5134696;28;20652;-88
2022/11/20 00:55:35;;;;;;;14.10;9.50;;;4.10;99.90;;;;;;5114950;28;20181;-89
2022/11/20 00:58:01;;;;;;;12.23;8.73;;;4.10;99.90;;;;;;5110207;28;20649;-89
2022/11/20 01:00:27;;;;;;;13.13;9.33;;;4.20;99.90;;;;;;5115616;28;20215;-89
2022/11/20 01:02:55;;;;;;;13.87;9.50;;;4.20;99.90;;;;;;5096915;28;20535;-88
2022/11/20 01:05:22;;;;;;;15.40;9.30;;;4.20;99.90;;;;;;5114104;28;20178;-83
2022/11/20 01:07:48;;;;;;;15.33;9.17;;;4.20;99.90;;;;;;5113803;28;20245;-88
2022/11/20 01:10:14;;;;;;;14.23;9.50;;;4.30;99.90;;;;;;5115091;28;20206;-81
2022/11/20 01:12:40;;;;;;;14.00;9.17;;;4.40;99.90;;;;;;5117193;28;20173;-82
2022/11/20 01:15:06;;;;;;;13.67;9.20;;;4.30;99.90;;;;;;5117973;28;20173;-91
2022/11/20 01:17:32;;;;;;;14.63;9.10;;;4.30;99.90;;;;;;5119339;28;20176;-89
2022/11/20 01:19:58;;;;;;;12.27;8.53;;;4.30;99.90;;;;;;5119764;28;20214;-92
2022/11/20 01:22:23;;;;;;;13.77;8.77;;;4.20;99.90;;;;;;5126502;28;20227;-90
2022/11/20 01:24:49;;;;;;;10.80;7.77;;;4.20;99.90;;;;;;5121657;28;20179;-90
2022/11/20 01:27:15;;;;;;;10.47;8.00;;;4.30;99.90;;;;;;5101444;28;20180;-90
2022/11/20 01:29:41;;;;;;;10.40;8.13;;;4.20;99.90;;;;;;5119639;28;20253;-89
2022/11/20 01:32:07;;;;;;;10.80;7.97;;;4.30;99.90;;;;;;5110798;28;20185;-87
2022/11/20 01:34:33;;;;;;;11.37;7.60;;;4.20;99.90;;;;;;5132320;28;20177;-89
2022/11/20 01:36:59;;;;;;;10.40;7.17;;;4.20;99.90;;;;;;5107149;28;20538;-90
2022/11/20 01:39:26;;;;;;;9.17;7.13;;;4.20;99.90;;;;;;5096903;28;20291;-88
2022/11/20 01:44:55;;;;;;;7.40;5.93;;;4.20;99.90;;;;;;5100212;28;20194;-88
2022/11/20 01:47:30;;;;;;;8.50;6.67;;;4.10;99.90;;;;;;5099636;28;20185;-90
2022/11/20 01:50:00;;;;;;;7.33;6.23;;;4.10;99.90;;;;;;5101601;28;20177;-91
2022/11/20 01:52:59;;;;;;;8.90;6.60;;;4.10;99.90;;;;;;5102498;28;20155;-88
2022/11/20 01:55:34;;;;;;;8.17;6.23;;;4.10;99.90;;;;;;5101377;28;20582;-88
2022/11/20 01:58:02;;;;;;;10.53;6.60;;;4.20;99.90;;;;;;5098465;28;20158;-87
2022/11/20 02:00:27;;;;;;;7.57;6.33;;;4.20;99.90;;;;;;5097017;28;20208;-85
2022/11/20 02:03:08;;;;;;;7.83;6.10;;;4.30;99.90;;;;;;5097051;28;20279;-89
2022/11/20 02:05:59;;;;;;;7.37;5.90;;;4.30;99.90;;;;;;5096096;28;20231;-86
2022/11/20 02:08:25;;;;;;;7.03;6.23;;;4.30;99.90;;;;;;5096788;28;20170;-83
2022/11/20 02:10:50;;;;;;;7.77;5.87;;;4.20;99.90;;;;;;5111150;28;20167;-88
2022/11/20 02:16:03;;;;;;;7.50;6.13;;;4.30;99.90;;;;;;5098295;28;20173;-89
2022/11/20 02:18:29;;;;;;;8.67;6.50;;;4.30;99.90;;;;;;5095896;28;20595;-86
2022/11/20 02:21:02;;;;;;;7.43;6.17;;;4.30;99.90;;;;;;5105743;28;20253;-83
2022/11/20 02:23:43;;;;;;;8.13;6.80;;;4.30;99.90;;;;;;5111530;28;20173;-82
2022/11/20 02:26:12;;;;;;;10.53;6.57;;;4.30;99.90;;;;;;5102372;28;20592;-85
2022/11/20 02:28:38;;;;;;;9.43;6.43;;;4.30;99.90;;;;;;5097194;28;20167;-86
2022/11/20 02:31:04;;;;;;;8.87;6.23;;;4.30;99.90;;;;;;5096999;28;20171;-85
2022/11/20 02:33:30;;;;;;;6.80;6.07;;;4.40;99.90;;;;;;5095951;28;20229;-85
2022/11/20 02:35:56;;;;;;;7.40;6.10;;;4.40;99.90;;;;;;5097737;28;20171;-84
2022/11/20 02:38:22;;;;;;;8.43;6.00;;;4.40;99.90;;;;;;5112052;28;20213;-88
2022/11/20 02:40:47;;;;;;;9.60;6.73;;;4.40;99.90;;;;;;5125659;28;20676;-83
2022/11/20 02:43:16;;;;;;;8.30;6.47;;;4.50;99.90;;;;;;5118193;28;20192;-84
2022/11/20 02:45:45;;;;;;;8.63;6.80;;;4.40;99.90;;;;;;5116928;28;20174;-90
2022/11/20 02:48:10;;;;;;;7.63;6.40;;;4.30;99.90;;;;;;5117090;28;20184;-81
2022/11/20 02:50:40;;;;;;;8.70;6.77;;;4.40;99.90;;;;;;5119709;28;20162;-86
2022/11/20 02:53:08;;;;;;;7.83;6.63;;;4.40;99.90;;;;;;5100766;28;20201;-91
2022/11/20 02:55:34;;;;;;;9.20;6.40;;;4.40;99.90;;;;;;5098313;28;20181;-82
2022/11/20 02:58:05;;;;;;;8.50;6.67;;;4.40;99.90;;;;;;5119392;28;20231;-90
2022/11/20 03:00:37;;;;;;;8.33;6.60;;;4.40;99.90;;;;;;5120458;28;20205;-82
2022/11/20 03:03:03;;;;;;;8.20;6.13;;;4.30;99.90;;;;;;5118605;28;20567;-85
2022/11/20 03:05:32;;;;;;;10.43;6.50;;;4.30;99.90;;;;;;5119521;28;20184;-91
2022/11/20 03:07:57;;;;;;;7.00;5.53;;;4.20;99.90;;;;;;5098740;28;20273;-89
2022/11/20 03:10:23;;;;;;;9.20;6.77;;;4.20;99.90;;;;;;5119157;28;20649;-90
2022/11/20 03:12:55;;;;;;;9.23;6.90;;;4.30;99.90;;;;;;5117740;28;20197;-89
2022/11/20 03:15:21;;;;;;;7.10;6.40;;;4.30;99.90;;;;;;5120436;28;20204;-86
2022/11/20 03:17:47;;;;;;;9.40;6.17;;;4.30;99.90;;;;;;5103754;28;20539;-89
2022/11/20 03:20:13;;;;;;;10.80;6.93;;;4.40;99.90;;;;;;5117649;28;20208;-88
2022/11/20 03:22:39;;;;;;;7.33;6.50;;;4.40;99.90;;;;;;5109472;28;20173;-87
2022/11/20 03:25:05;;;;;;;8.67;6.67;;;4.40;99.90;;;;;;5117499;28;20170;-89
2022/11/20 03:27:34;;;;;;;8.80;6.33;;;4.40;99.90;;;;;;5116456;28;20714;-89
2022/11/20 03:30:01;;;;;;;9.00;6.70;;;4.50;99.90;;;;;;5116758;28;20173;-90
2022/11/20 03:32:29;;;;;;;7.60;6.50;;;4.40;99.90;;;;;;5116594;28;20178;-88
2022/11/20 03:34:55;;;;;;;9.10;6.27;;;4.40;99.90;;;;;;5116035;28;20160;-87
2022/11/20 03:37:30;;;;;;;7.97;6.40;;;4.40;99.90;;;;;;5116990;28;20191;-90
2022/11/20 03:39:56;;;;;;;8.90;6.77;;;4.40;99.90;;;;;;5124863;28;20197;-84
2022/11/20 03:45:06;;;;;;;7.23;6.23;;;4.40;99.90;;;;;;5127522;28;20168;-84
2022/11/20 03:47:32;;;;;;;7.93;6.27;;;4.40;99.90;;;;;;5122729;28;20166;-89
2022/11/20 03:49:58;;;;;;;8.73;6.87;;;4.40;99.90;;;;;;5118496;28;20174;-89
2022/11/20 03:52:24;;;;;;;9.23;6.90;;;4.40;99.90;;;;;;5138002;27;20196;-87
2022/11/20 03:54:50;;;;;;;9.93;7.20;;;4.50;99.90;;;;;;5125703;28;20175;-89
2022/11/20 03:57:19;;;;;;;10.00;7.27;;;4.50;99.90;;;;;;5119584;28;20184;-88
2022/11/20 03:59:45;;;;;;;8.10;6.80;;;4.40;99.90;;;;;;5105536;28;20270;-84
2022/11/20 04:02:11;;;;;;;9.30;6.70;;;4.40;99.90;;;;;;5115846;28;20205;-88
2022/11/20 04:04:40;;;;;;;9.23;6.67;;;4.30;99.90;;;;;;5115270;28;20517;-89
2022/11/20 04:07:05;;;;;;;8.90;7.10;;;4.30;99.90;;;;;;5114866;28;20176;-86
2022/11/20 04:09:31;;;;;;;10.83;7.00;;;4.20;99.90;;;;;;5116018;28;20168;-82
2022/11/20 04:11:57;;;;;;;12.10;7.23;;;4.30;99.90;;;;;;5105278;28;20197;-84
2022/11/20 04:14:26;;;;;;;9.23;7.07;;;4.30;99.90;;;;;;5107697;28;20700;-85
2022/11/20 04:16:53;;;;;;;10.60;7.53;;;4.30;99.90;;;;;;5119910;28;20226;-85
2022/11/20 04:19:19;;;;;;;9.70;6.60;;;4.30;99.90;;;;;;5107504;28;20170;-86
2022/11/20 04:21:46;;;;;;;8.93;7.10;;;4.30;99.90;;;;;;5096691;28;20208;-85
2022/11/20 04:24:12;;;;;;;7.67;6.40;;;4.40;99.90;;;;;;5096802;28;20257;-86
2022/11/20 04:26:38;;;;;;;9.80;7.20;;;4.30;99.90;;;;;;5114947;28;20250;-86
2022/11/20 04:29:04;;;;;;;7.20;5.70;;;4.20;99.90;;;;;;5096512;28;20265;-82
2022/11/20 04:31:45;;;;;;;7.27;6.10;;;4.00;99.90;;;;;;5114105;28;20173;-90
2022/11/20 04:34:11;;;;;;;8.97;6.30;;;4.00;99.90;;;;;;5096214;28;20352;-84
2022/11/20 04:36:37;;;;;;;9.10;6.73;;;4.10;99.90;;;;;;5096363;28;20177;-84
2022/11/20 04:39:05;;;;;;;8.57;6.30;;;4.10;99.90;;;;;;5116870;28;20290;-82
2022/11/20 04:41:36;;;;;;;7.40;6.07;;;4.10;99.90;;;;;;5097016;28;20219;-90
2022/11/20 04:44:04;;;;;;;8.43;6.30;;;4.30;99.90;;;;;;5079681;28;20182;-82
2022/11/20 04:46:33;;;;;;;7.37;6.10;;;4.30;99.90;;;;;;5118263;28;20665;-82
2022/11/20 04:49:01;;;;;;;8.33;6.60;;;4.20;99.90;;;;;;5099793;28;20213;-89
2022/11/20 04:51:27;;;;;;;8.43;6.57;;;4.20;99.90;;;;;;5099363;28;20633;-81
2022/11/20 04:53:53;;;;;;;8.63;6.37;;;4.10;99.90;;;;;;5101280;28;20213;-82
2022/11/20 04:56:19;;;;;;;8.73;6.10;;;4.00;99.90;;;;;;5123447;28;20261;-90
2022/11/20 04:58:45;;;;;;;9.53;6.20;;;4.10;99.90;;;;;;5119536;28;20205;-88
2022/11/20 05:01:22;;;;;;;7.73;6.00;;;4.20;99.90;;;;;;5128943;28;20209;-89
2022/11/20 05:03:48;;;;;;;6.83;5.43;;;4.30;99.90;;;;;;5128401;28;20162;-90
2022/11/20 05:06:17;;;;;;;7.57;5.70;;;4.40;99.90;;;;;;5101440;28;20184;-90
2022/11/20 05:08:43;;;;;;;8.97;6.00;;;4.50;99.90;;;;;;5120264;28;20167;-90
2022/11/20 05:11:14;;;;;;;8.57;5.73;;;4.50;99.90;;;;;;5139835;28;21035;-88
2022/11/20 05:13:41;;;;;;;7.17;5.77;;;4.40;99.90;;;;;;5115082;28;20166;-89
2022/11/20 05:16:18;;;;;;;9.13;6.50;;;4.40;99.90;;;;;;5108216;28;20184;-89
2022/11/20 05:18:44;;;;;;;6.37;5.40;;;4.40;99.90;;;;;;5109083;28;20211;-89
2022/11/20 05:21:11;;;;;;;7.93;6.37;;;4.30;99.90;;;;;;5134253;28;20205;-89
2022/11/20 05:23:38;;;;;;;7.80;6.27;;;4.30;99.90;;;;;;5136031;28;20177;-85
2022/11/20 05:26:05;;;;;;;7.97;6.50;;;4.20;99.90;;;;;;5102302;28;20175;-88
2022/11/20 05:28:32;;;;;;;8.00;6.07;;;4.20;99.90;;;;;;5102016;28;20537;-87
2022/11/20 05:31:09;;;;;;;9.07;6.73;;;4.30;99.90;;;;;;5121087;28;20185;-86
2022/11/20 05:33:36;;;;;;;8.03;6.27;;;4.30;99.90;;;;;;5134440;28;20179;-88
2022/11/20 05:36:05;;;;;;;10.67;7.07;;;4.20;99.90;;;;;;5133674;28;20183;-86
2022/11/20 05:38:31;;;;;;;8.47;6.97;;;4.20;99.90;;;;;;5139060;28;20228;-85
2022/11/20 05:41:11;;;;;;;9.73;7.13;;;4.10;99.90;;;;;;5123751;28;20190;-91
2022/11/20 05:43:39;;;;;;;8.63;6.93;;;4.10;99.90;;;;;;5118975;28;20169;-91
2022/11/20 05:46:07;;;;;;;9.67;7.07;;;4.10;99.90;;;;;;5118319;28;20171;-91
2022/11/20 05:48:35;;;;;;;10.47;7.13;;;4.20;99.90;;;;;;5121254;28;20657;-88
2022/11/20 05:51:04;;;;;;;9.73;7.10;;;4.20;99.90;;;;;;5099189;28;20536;-89
2022/11/20 05:53:31;;;;;;;11.03;7.60;;;4.30;99.90;;;;;;5117356;28;20244;-89
2022/11/20 05:55:59;;;;;;;12.03;8.03;;;4.30;99.90;;;;;;5103680;28;20181;-86
2022/11/20 05:58:24;;;;;;;12.10;8.27;;;4.30;99.90;;;;;;5131117;28;20166;-91
2022/11/20 06:00:51;;;;;;;13.03;8.67;;;4.30;99.90;;;;;;5124421;28;20718;-88
2022/11/20 06:03:17;;;;;;;12.03;7.97;;;4.30;99.90;;;;;;5120608;28;20219;-85
2022/11/20 06:05:42;;;;;;;8.97;7.57;;;4.30;99.90;;;;;;5104440;28;20183;-88
2022/11/20 06:08:08;;;;;;;9.37;7.10;;;4.40;99.90;;;;;;5124371;28;20178;-89
2022/11/20 06:10:34;;;;;;;10.17;7.57;;;4.30;99.90;;;;;;5119282;28;20183;-90
2022/11/20 06:13:00;;;;;;;10.87;8.20;;;4.30;99.90;;;;;;5117372;28;20245;-84
2022/11/20 06:15:26;;;;;;;11.43;7.93;;;4.40;99.90;;;;;;5116829;28;20253;-88
2022/11/20 06:17:53;;;;;;;11.07;7.97;;;4.40;99.90;;;;;;5098165;28;20528;-86
2022/11/20 06:20:19;;;;;;;12.17;8.00;;;4.40;99.90;;;;;;5116465;28;20295;-90
2022/11/20 06:22:45;;;;;;;11.20;7.97;;;4.40;99.90;;;;;;5116930;28;20621;-90
2022/11/20 06:25:11;;;;;;;13.80;9.00;;;4.40;99.90;;;;;;5098408;28;20231;-89
2022/11/20 06:27:40;;;;;;;10.33;7.63;;;4.40;99.90;;;;;;5117192;28;20668;-91
2022/11/20 06:30:06;;;;;;;13.53;8.50;;;4.30;99.90;;;;;;5099057;28;20178;-88
2022/11/20 06:32:33;;;;;;;12.43;8.90;;;4.40;99.90;;;;;;5117740;28;20168;-90
2022/11/20 06:34:59;;;;;;;12.93;7.43;;;4.30;99.90;;;;;;5121731;28;20179;-82
2022/11/20 06:37:24;;;;;;;11.90;7.40;;;4.30;99.90;;;;;;5100216;28;20269;-89
2022/11/20 06:39:50;;;;;;;11.07;8.00;;;4.30;99.90;;;;;;5116429;28;20225;-90
2022/11/20 06:42:16;;;;;;;11.17;7.20;;;4.40;99.90;;;;;;5117999;28;20186;-87
2022/11/20 06:44:42;;;;;;;9.57;6.97;;;4.40;99.90;;;;;;5118203;28;20660;-91
2022/11/20 06:47:07;;;;;;;10.37;8.07;;;4.40;99.90;;;;;;5117057;28;20180;-84
2022/11/20 06:49:34;;;;;;;8.87;6.67;;;4.40;99.90;;;;;;5116556;28;20171;-87
2022/11/20 06:52:00;;;;;;;10.00;6.50;;;4.40;99.90;;;;;;5106530;27;20188;-83
2022/11/20 06:54:25;;;;;;;12.17;8.87;;;4.40;99.90;;;;;;5140192;27;20174;-82
2022/11/20 06:56:51;;;;;;;13.57;8.20;;;4.30;99.90;;;;;;5121304;28;20189;-87
2022/11/20 06:59:17;;;;;;;11.47;7.53;;;4.30;99.90;;;;;;5116431;28;20170;-85
2022/11/20 07:01:43;;;;;;;9.70;7.57;;;4.30;99.90;;;;;;5117814;27;20706;-87
2022/11/20 07:04:08;;;;;;;10.00;7.97;;;4.30;99.90;;;;;;5084387;28;20183;-82
2022/11/20 07:06:34;;;;;;;11.87;7.50;;;4.40;99.90;;;;;;5099451;28;20178;-90
2022/11/20 07:09:00;;;;;;;11.50;8.57;;;4.40;99.90;;;;;;5127315;28;20177;-91
2022/11/20 07:11:26;;;;;;;12.27;8.10;;;4.30;99.90;;;;;;5117200;28;20203;-87
2022/11/20 07:13:51;;;;;;;8.90;7.30;;;4.40;99.90;;;;;;5099119;28;20579;-87
2022/11/20 07:16:17;;;;;;;9.80;7.40;;;4.40;99.90;;;;;;5111979;28;20662;-86
2022/11/20 07:18:43;;;;;;;11.17;7.73;;;4.50;99.90;;;;;;5106946;28;20180;-91
2022/11/20 07:21:10;;;;;;;10.33;7.37;;;4.40;99.90;;;;;;5116496;28;20560;-89
2022/11/20 07:23:36;;;;;;;10.30;7.03;;;4.40;99.90;;;;;;5119308;28;20189;-80
2022/11/20 07:26:10;;;;;;;11.30;8.13;;;4.40;99.90;;;;;;5119448;28;20201;-90
2022/11/20 07:28:36;;;;;;;9.77;6.77;;;4.50;99.90;;;;;;5118131;28;20166;-89
2022/11/20 07:31:02;;;;;;;9.63;7.20;;;4.50;99.90;;;;;;5102603;28;20660;-88
2022/11/20 07:33:28;;;;;;;10.57;7.77;;;4.50;99.90;;;;;;5126105;28;20261;-88
2022/11/20 07:35:54;;;;;;;10.43;7.17;;;4.60;99.90;;;;;;5124851;28;20181;-84
2022/11/20 07:38:22;;;;;;;10.53;7.67;;;4.60;99.90;;;;;;5117969;28;20217;-87
2022/11/20 07:40:52;;;;;;;11.67;7.70;;;4.60;99.90;;;;;;5122964;27;20521;-87
2022/11/20 07:43:18;;;;;;;11.73;7.90;;;4.70;99.90;;;;;;5121826;27;20162;-85
2022/11/20 07:45:44;;;;;;;10.10;7.53;;;4.80;99.90;;;;;;5119189;27;20172;-85
2022/11/20 07:48:10;;;;;;;11.03;7.73;;;4.80;99.90;;;;;;5099866;27;20173;-88
2022/11/20 07:50:36;;;;;;;12.63;8.07;;;4.90;99.90;;;;;;5115180;27;20177;-88
2022/11/20 07:53:04;;;;;;;11.37;7.70;;;4.90;99.90;;;;;;5115294;28;20247;-87
2022/11/20 07:55:30;;;;;;;10.80;7.43;;;4.90;99.90;;;;;;5116178;28;20229;-87
2022/11/20 07:57:57;;;;;;;12.07;7.90;;;5.00;99.90;;;;;;5122664;27;20182;-85
2022/11/20 08:00:23;;;;;;;9.80;7.43;;;5.00;99.90;;;;;;5119682;28;20748;-85
2022/11/20 08:02:49;;;;;;;10.03;8.07;;;5.10;99.90;;;;;;5097497;28;20176;-85
2022/11/20 08:05:15;;;;;;;9.17;7.40;;;5.10;99.90;;;;;;5114220;28;20178;-85
2022/11/20 08:07:43;;;;;;;10.17;7.33;;;5.10;99.90;;;;;;5115420;28;20188;-87
2022/11/20 08:10:13;;;;;;;11.37;7.53;;;5.10;99.90;;;;;;5116433;28;20215;-87
2022/11/20 08:15:40;;;;;;;10.40;7.47;;;5.10;99.90;;;;;;5132578;28;20243;-89
2022/11/20 08:18:08;;;;;;;11.53;8.10;;;5.10;99.90;;;;;;5104870;28;20213;-89
2022/11/20 08:20:35;;;;;;;12.27;8.10;;;5.20;99.90;;;;;;5103161;28;20541;-89
2022/11/20 08:23:03;;;;;;;12.67;9.40;;;5.30;99.90;;;;;;5103389;28;20264;-89
2022/11/20 08:25:36;;;;;;;13.23;9.33;;;5.30;99.90;;;;;;5119640;28;20165;-88
2022/11/20 08:28:06;;;;;;;11.43;8.43;;;5.40;99.90;;;;;;5129646;28;20178;-87
2022/11/20 08:30:49;;;;;;;12.73;8.83;;;5.40;99.90;;;;;;5107592;28;20183;-89
2022/11/20 08:33:35;;;;;;;10.20;7.90;;;5.50;99.90;;;;;;5105005;28;20202;-90
2022/11/20 08:36:02;;;;;;;10.17;7.33;;;5.50;99.90;;;;;;5120604;28;20160;-89
2022/11/20 08:38:29;;;;;;;9.93;7.57;;;5.50;99.90;;;;;;5120649;28;20216;-89
2022/11/20 08:43:44;;;;;;;11.23;8.07;;;5.60;99.90;;;;;;5123524;28;20203;-86
2022/11/20 08:46:10;;;;;;;11.83;8.20;;;5.60;99.90;;;;;;5121406;28;20171;-88
2022/11/20 08:48:36;;;;;;;10.13;7.97;;;5.60;99.90;;;;;;5106040;28;20253;-86
2022/11/20 08:51:02;;;;;;;13.07;8.23;;;5.50;99.90;;;;;;5136588;28;20200;-87
2022/11/20 08:53:28;;;;;;;12.90;8.33;;;5.50;99.90;;;;;;5136571;28;20178;-87
2022/11/20 08:55:54;;;;;;;11.33;7.83;;;5.50;99.90;;;;;;5119693;28;20607;-88
2022/11/20 08:58:20;;;;;;;10.90;8.00;;;5.50;99.90;;;;;;5130922;28;20182;-85
2022/11/20 09:00:45;;;;;;;12.50;8.50;;;5.40;99.90;;;;;;5105225;28;20209;-90
2022/11/20 09:03:14;;;;;;;10.20;8.07;;;5.50;99.90;;;;;;5120379;28;20603;-88
2022/11/20 09:05:40;;;;;;;11.27;8.60;;;5.60;99.90;;;;;;5101093;28;20177;-87
2022/11/20 09:08:06;;;;;;;10.87;7.87;;;5.70;99.90;;;;;;5119258;28;20166;-87
2022/11/20 09:10:32;;;;;;;11.73;8.83;;;5.70;99.90;;;;;;5100315;28;20202;-85
2022/11/20 09:12:58;;;;;;;11.03;7.97;;;5.70;99.90;;;;;;5099847;28;20510;-87
2022/11/20 09:15:25;;;;;;;10.80;8.10;;;5.70;99.90;;;;;;5103354;28;20193;-87
2022/11/20 09:17:58;;;;;;;10.23;8.00;;;5.70;99.90;;;;;;5101199;28;20173;-84
2022/11/20 09:20:25;;;;;;;10.60;8.40;;;5.60;99.90;;;;;;5120496;28;20194;-85
2022/11/20 09:22:51;;;;;;;12.10;8.63;;;5.60;99.90;;;;;;5106663;28;20232;-88
2022/11/20 09:25:17;;;;;;;11.27;8.17;;;5.70;99.90;;;;;;5130679;28;20187;-87
2022/11/20 09:27:43;;;;;;;14.27;9.30;;;5.80;99.90;;;;;;5124249;28;20184;-85
2022/11/20 09:30:10;;;;;;;11.67;8.67;;;5.80;99.90;;;;;;5115102;28;20191;-83
2022/11/20 09:32:35;;;;;;;11.57;9.13;;;5.80;99.90;;;;;;5115274;28;20170;-83
2022/11/20 09:35:01;;;;;;;10.93;8.10;;;5.70;99.90;;;;;;5123348;28;20178;-89
2022/11/20 09:37:27;;;;;;;9.67;7.40;;;5.80;99.90;;;;;;5104596;28;20171;-87
2022/11/20 09:39:54;;;;;;;9.97;7.73;;;5.90;99.90;;;;;;5080317;28;20196;-88
2022/11/20 09:42:38;;;;;;;12.17;8.03;;;6.10;99.90;;;;;;5076494;28;20554;-84
2022/11/20 09:45:15;;;;;;;10.03;7.97;;;6.10;99.90;;;;;;5077726;28;20161;-86
2022/11/20 09:47:59;;;;;;;10.60;7.43;;;6.20;99.90;;;;;;5087455;28;20199;-83
2022/11/20 09:50:57;;;;;;;11.53;8.30;;;6.10;99.90;;;;;;5076319;28;20164;-83
2022/11/20 09:53:31;;;;;;;11.20;8.60;;;6.10;99.90;;;;;;5078254;28;20164;-86
2022/11/20 09:55:57;;;;;;;10.27;7.83;;;6.20;99.90;;;;;;5084281;28;20165;-84
2022/11/20 09:58:39;;;;;;;10.47;8.17;;;6.20;99.90;;;;;;5098363;28;20229;-88
2022/11/20 10:01:16;;;;;;;9.50;6.97;;;6.10;99.90;;;;;;5100722;28;20205;-86
2022/11/20 10:03:55;;;;;;;8.43;7.30;;;6.10;99.90;;;;;;5096943;28;20594;-87
2022/11/20 10:06:55;;;;;;;9.90;8.40;;;6.10;99.90;;;;;;5097016;28;20190;-84
2022/11/20 10:09:28;;;;;;;9.30;7.67;;;6.10;99.90;;;;;;5095457;28;20198;-85
2022/11/20 10:12:03;;;;;;;8.77;7.87;;;6.20;99.90;;;;;;5095130;28;20225;-82
2022/11/20 10:15:02;;;;;;;10.57;8.23;;;6.00;99.90;;;;;;5096045;28;20167;-82
2022/11/20 10:17:46;;;;;;;9.63;7.33;;;6.30;99.90;;;;;;5095562;28;20157;-81
2022/11/20 10:20:21;;;;;;;8.87;7.20;;;6.50;99.90;;;;;;5094822;28;20194;-81
2022/11/20 10:23:08;;;;;;;9.83;7.37;;;6.80;99.90;;;;;;5095674;28;20697;-88
2022/11/20 10:25:41;;;;;;;9.40;7.33;;;6.90;99.90;;;;;;5095972;28;20173;-86
2022/11/20 10:28:37;;;;;;;10.30;7.80;;;7.10;99.90;;;;;;5097658;28;20168;-84
2022/11/20 10:31:08;;;;;;;9.47;7.67;;;7.20;99.90;;;;;;5101089;28;20169;-83
2022/11/20 10:33:41;;;;;;;8.97;7.20;;;7.10;99.90;;;;;;5097417;28;20161;-83
2022/11/20 10:36:16;;;;;;;9.37;7.40;;;7.20;99.90;;;;;;5095069;28;20190;-85
2022/11/20 10:39:06;;;;;;;10.53;8.10;;;7.20;99.90;;;;;;5116669;27;20338;-88
2022/11/20 10:41:40;;;;;;;9.00;7.40;;;7.30;99.90;;;;;;5119403;27;20202;-84
2022/11/20 10:47:18;;;;;;;9.70;7.43;;;7.50;99.90;;;;;;5140508;27;20170;-85
2022/11/20 10:49:49;;;;;;;9.43;7.87;;;7.50;99.90;;;;;;5137603;27;20189;-86
2022/11/20 10:52:36;;;;;;;10.93;7.93;;;7.60;99.90;;;;;;5118710;27;20202;-87
2022/11/20 10:55:31;;;;;;;9.90;7.97;;;7.70;99.90;;;;;;5136155;27;20220;-80
2022/11/20 10:58:11;;;;;;;10.70;8.10;;;7.80;99.90;;;;;;5087554;27;20260;-81
2022/11/20 11:00:37;;;;;;;11.00;8.40;;;8.00;99.90;;;;;;5135510;27;20186;-85
2022/11/20 11:03:07;;;;;;;12.10;9.40;;;8.00;99.90;;;;;;5135888;27;20228;-81
2022/11/20 11:05:56;;;;;;;11.77;9.20;;;8.20;99.90;;;;;;5117002;27;20172;-80
2022/11/20 11:08:26;;;;;;;12.83;9.73;;;8.20;99.90;;;;;;5117519;27;20647;-79
2022/11/20 11:10:56;;;;;;;11.20;8.60;;;8.30;99.90;;;;;;5118253;27;20230;-81
2022/11/20 11:13:28;;;;;;;11.70;8.97;;;8.30;99.90;;;;;;5137570;27;20601;-81
2022/11/20 11:15:54;;;;;;;10.40;8.40;;;8.40;99.90;;;;;;5118281;27;20268;-80
2022/11/20 11:18:29;;;;;;;11.17;8.83;;;8.40;99.90;;;;;;5144424;27;20168;-80
2022/11/20 11:20:57;;;;;;;12.80;9.17;;;8.50;99.90;;;;;;5142587;27;20253;-84
2022/11/20 11:23:36;;;;;;;10.93;9.23;;;8.60;99.90;;;;;;5144080;27;20190;-79
2022/11/20 11:26:04;;;;;;;11.13;8.97;;;8.60;99.90;;;;;;5108216;28;20179;-78
2022/11/20 11:28:30;;;;;;;12.47;9.67;;;8.60;99.90;;;;;;5102051;28;20173;-81
2022/11/20 11:30:56;;;;;;;10.83;9.17;;;8.60;99.90;;;;;;5118933;28;20243;-81
2022/11/20 11:33:25;;;;;;;12.23;9.27;;;8.60;99.90;;;;;;5099484;27;20635;-83
2022/11/20 11:35:58;;;;;;;12.17;9.17;;;8.50;99.90;;;;;;5104477;28;20178;-81
2022/11/20 11:38:38;;;;;;;9.90;8.47;;;8.50;99.90;;;;;;5096262;28;20226;-83
2022/11/20 11:41:06;;;;;;;10.80;8.47;;;8.30;99.90;;;;;;5096346;27;20235;-82
2022/11/20 11:46:24;;;;;;;10.47;8.47;;;7.90;99.90;;;;;;5123263;27;20175;-86
2022/11/20 11:49:05;;;;;;;9.80;8.30;;;7.80;99.90;;;;;;5095854;28;20181;-87
2022/11/20 11:51:39;;;;;;;10.77;8.50;;;7.60;99.90;;;;;;5116587;28;20180;-88
2022/11/20 11:54:19;;;;;;;11.83;8.57;;;7.50;99.90;;;;;;5119696;28;20165;-92
2022/11/20 11:56:45;;;;;;;11.73;9.23;;;7.40;99.90;;;;;;5119758;28;20228;-90
2022/11/20 11:59:26;;;;;;;10.03;8.23;;;7.40;99.90;;;;;;5116148;28;20172;-91
2022/11/20 12:02:00;;;;;;;8.13;7.17;;;7.40;99.90;;;;;;5117062;28;20653;-90
2022/11/20 12:04:51;;;;;;;13.03;8.53;;;7.40;99.90;;;;;;5117191;28;20162;-88
2022/11/20 12:07:32;;;;;;;13.03;9.33;;;7.40;99.90;;;;;;5128763;28;20181;-81
2022/11/20 12:10:00;;;;;;;9.50;8.50;;;7.40;99.90;;;;;;5098213;28;20572;-80
2022/11/20 12:12:38;;;;;;;10.27;7.60;;;7.30;99.90;;;;;;5114088;28;20169;-85
2022/11/20 12:15:09;;;;;;;9.80;7.50;;;7.30;99.90;;;;;;5116248;28;20173;-83
2022/11/20 12:17:35;;;;;;;8.20;7.30;;;7.40;99.90;;;;;;5115670;28;20644;-81
2022/11/20 12:20:01;;;;;;;8.47;7.57;;;7.40;99.90;;;;;;5125871;28;20248;-81
2022/11/20 12:22:36;;;;;;;8.97;7.13;;;7.40;99.90;;;;;;5113139;28;20166;-87
2022/11/20 12:25:14;;;;;;;8.23;7.17;;;7.40;99.90;;;;;;5114111;28;20254;-87
2022/11/20 12:27:40;;;;;;;5.80;5.17;;;7.40;99.90;;;;;;5121034;28;20195;-88
2022/11/20 12:30:14;;;;;;;6.67;6.00;;;7.40;99.90;;;;;;5128408;28;20233;-92
2022/11/20 12:33:20;;;;;;;5.40;4.90;;;7.30;99.90;;;;;;5115635;28;20207;-89
2022/11/20 12:35:49;;;;;;;6.60;5.30;;;7.40;99.90;;;;;;5074738;28;20188;-90
2022/11/20 12:38:45;;;;;;;7.20;6.47;;;7.40;99.90;;;;;;5116027;28;20236;-85
2022/11/20 12:45:09;;;;;;;6.63;5.90;;;7.40;99.90;;;;;;5107999;28;20208;-87
2022/11/20 12:48:18;;;;;;;8.90;6.10;;;7.40;99.90;;;;;;5114538;28;20176;-86
2022/11/20 12:51:06;;;;;;;6.60;5.63;;;7.60;99.90;;;;;;5087302;28;20194;-79
2022/11/20 12:54:06;;;;;;;6.27;5.47;;;7.70;99.90;;;;;;5130826;28;20170;-85
2022/11/20 12:57:11;;;;;;;6.23;5.40;;;7.90;99.90;;;;;;5116754;28;20166;-87
2022/11/20 13:00:01;;;;;;;6.13;5.53;;;8.10;99.90;;;;;;5084620;28;20658;-82
2022/11/20 13:02:59;;;;;;;7.73;6.20;;;8.20;99.90;;;;;;5127989;28;20159;-83
2022/11/20 13:05:33;;;;;;;5.73;5.23;;;8.30;99.90;;;;;;5115569;28;20675;-84
2022/11/20 13:08:01;;;;;;;4.60;4.20;;;8.30;99.90;;;;;;5099350;28;20616;-86
2022/11/20 13:10:35;;;;;;;4.23;3.87;;;8.30;99.90;;;;;;5118257;28;20176;-83
2022/11/20 13:13:23;;;;;;;4.50;4.10;;;8.40;99.90;;;;;;5101896;28;20331;-83
2022/11/20 13:16:10;;;;;;;4.07;3.70;;;8.50;99.90;;;;;;5124060;28;20165;-82
2022/11/20 13:18:41;;;;;;;4.30;4.00;;;8.60;99.90;;;;;;5104464;28;20165;-83
2022/11/20 13:21:19;;;;;;;3.73;3.43;;;8.70;99.90;;;;;;5101801;28;20218;-82
2022/11/20 13:23:45;;;;;;;4.67;4.20;;;8.80;99.90;;;;;;5125048;28;20224;-81
2022/11/20 13:26:16;;;;;;;4.47;4.07;;;8.90;99.90;;;;;;5132837;28;20177;-84
2022/11/20 13:28:42;;;;;;;3.03;2.73;;;9.00;99.90;;;;;;5100966;28;20254;-82
2022/11/20 13:31:47;;;;;;;2.63;2.50;;;9.00;99.90;;;;;;5117455;28;20259;-86